createdAt,value
2018-04-10T00:01:14.163Z,10.70
2018-04-10T00:03:41.678Z,9.97
2018-04-10T00:06:09.158Z,10.33
2018-04-10T00:08:36.610Z,10.20
2018-04-10T00:11:04.095Z,9.93
2018-04-10T00:13:31.525Z,9.40
2018-04-10T00:15:59.007Z,9.90
2018-04-10T00:18:26.466Z,10.57
2018-04-10T00:20:53.922Z,9.90
2018-04-10T00:23:21.372Z,10.60
2018-04-10T00:25:48.837Z,9.63
2018-04-10T00:28:16.295Z,9.70
2018-04-10T00:30:43.757Z,11.67
2018-04-10T00:33:11.213Z,10.90
2018-04-10T00:35:38.654Z,10.20
2018-04-10T00:38:06.132Z,11.57
2018-04-10T00:40:33.629Z,10.37
2018-04-10T00:43:01.085Z,11.30
2018-04-10T00:45:28.543Z,12.43
2018-04-10T00:47:56.000Z,11.27
2018-04-10T00:50:23.473Z,10.60
2018-04-10T00:52:50.925Z,11.00
2018-04-10T00:55:18.370Z,10.50
2018-04-10T00:57:45.828Z,10.70
2018-04-10T01:00:13.286Z,11.27
2018-04-10T01:02:40.757Z,10.57
2018-04-10T01:05:08.227Z,10.70
2018-04-10T01:07:35.697Z,10.60
2018-04-10T01:10:03.163Z,12.10
2018-04-10T01:12:30.622Z,12.37
2018-04-10T01:14:58.070Z,10.40
2018-04-10T01:17:25.526Z,14.13
2018-04-10T01:19:53.761Z,10.70
2018-04-10T01:22:21.257Z,10.20
2018-04-10T01:24:48.709Z,12.27
2018-04-10T01:27:16.283Z,10.53
2018-04-10T01:29:43.730Z,10.40
2018-04-10T01:32:11.189Z,9.47
2018-04-10T01:34:38.637Z,10.90
2018-04-10T01:37:06.090Z,11.10
2018-04-10T01:39:34.315Z,11.60
2018-04-10T01:42:01.802Z,10.83
2018-04-10T01:44:30.049Z,9.73
2018-04-10T01:46:57.539Z,11.20
2018-04-10T01:49:24.989Z,14.43
2018-04-10T01:51:52.443Z,10.40
2018-04-10T01:54:19.898Z,11.20
2018-04-10T01:56:47.356Z,14.83
2018-04-10T01:59:14.817Z,14.03
2018-04-10T02:01:43.057Z,10.97
2018-04-10T02:04:10.520Z,10.60
2018-04-10T02:06:37.954Z,11.63
2018-04-10T02:09:05.407Z,14.30
2018-04-10T02:11:33.631Z,11.70
2018-04-10T02:14:01.103Z,10.90
2018-04-10T02:16:28.577Z,11.10
2018-04-10T02:18:56.109Z,9.53
2018-04-10T02:21:24.326Z,10.17
2018-04-10T02:23:51.782Z,11.00
2018-04-10T02:26:19.237Z,9.90
2018-04-10T02:28:47.472Z,10.17
2018-04-10T02:31:14.916Z,9.50
2018-04-10T02:33:42.439Z,9.90
2018-04-10T02:36:09.892Z,10.50
2018-04-10T02:38:37.352Z,9.90
2018-04-10T02:41:04.804Z,9.63
2018-04-10T02:43:32.262Z,9.60
2018-04-10T02:45:59.698Z,10.73
2018-04-10T02:48:27.170Z,10.07
2018-04-10T02:50:54.646Z,9.60
2018-04-10T02:53:22.094Z,10.83
2018-04-10T02:55:49.547Z,10.10
2018-04-10T02:58:16.998Z,11.07
2018-04-10T03:00:44.464Z,10.60
2018-04-10T03:03:11.974Z,9.70
2018-04-10T03:05:39.915Z,11.17
2018-04-10T03:08:07.366Z,9.30
2018-04-10T03:10:34.805Z,9.80
2018-04-10T03:13:02.274Z,10.93
2018-04-10T03:15:29.725Z,9.93
2018-04-10T03:17:57.177Z,10.90
2018-04-10T03:20:24.633Z,11.93
2018-04-10T03:22:52.101Z,9.87
2018-04-10T03:25:19.562Z,10.60
2018-04-10T03:27:47.019Z,10.90
2018-04-10T03:30:14.473Z,10.43
2018-04-10T03:32:41.933Z,10.60
2018-04-10T03:35:09.388Z,10.80
2018-04-10T03:37:36.849Z,10.67
2018-04-10T03:40:04.298Z,9.50
2018-04-10T03:42:31.764Z,11.60
2018-04-10T03:44:59.227Z,11.90
2018-04-10T03:47:26.676Z,11.70
2018-04-10T03:49:54.129Z,11.87
2018-04-10T03:52:21.586Z,11.37
2018-04-10T03:54:49.811Z,13.10
2018-04-10T03:57:17.277Z,10.87
2018-04-10T03:59:44.741Z,13.30
2018-04-10T04:02:12.875Z,14.37
2018-04-10T04:04:40.354Z,11.97
2018-04-10T04:07:07.824Z,12.63
2018-04-10T04:09:35.289Z,14.20
2018-04-10T04:12:02.743Z,14.37
2018-04-10T04:14:30.239Z,13.00
2018-04-10T04:17:09.637Z,13.77
2018-04-10T04:19:49.111Z,13.10
2018-04-10T04:22:28.507Z,14.67
2018-04-10T04:24:55.996Z,15.13
2018-04-10T04:27:23.439Z,14.50
2018-04-10T04:29:52.510Z,14.00
2018-04-10T04:32:19.998Z,14.57
2018-04-10T04:34:47.479Z,14.67
2018-04-10T04:37:14.929Z,14.73
2018-04-10T04:39:42.387Z,15.50
2018-04-10T04:42:09.851Z,15.97
2018-04-10T04:44:37.340Z,16.00
2018-04-10T04:47:04.791Z,14.73
2018-04-10T04:49:32.263Z,15.93
2018-04-10T04:51:59.728Z,15.80
2018-04-10T04:54:27.957Z,15.17
2018-04-10T04:56:55.418Z,15.80
2018-04-10T04:59:22.874Z,15.70
2018-04-10T05:01:51.110Z,15.97
2018-04-10T05:04:18.596Z,16.27
2018-04-10T05:06:46.052Z,17.73
2018-04-10T05:09:13.601Z,16.60
2018-04-10T05:11:41.041Z,16.73
2018-04-10T05:14:09.414Z,16.60
2018-04-10T05:16:36.866Z,16.57
2018-04-10T05:19:04.348Z,15.40
2018-04-10T05:21:31.832Z,15.30
2018-04-10T05:23:59.290Z,17.73
2018-04-10T05:26:26.746Z,15.90
2018-04-10T05:28:54.206Z,15.43
2018-04-10T05:31:21.650Z,15.70
2018-04-10T05:33:49.121Z,16.13
2018-04-10T05:36:17.344Z,16.23
2018-04-10T05:38:44.836Z,15.87
2018-04-10T05:41:12.319Z,16.50
2018-04-10T05:43:39.794Z,16.60
2018-04-10T05:46:07.296Z,16.83
2018-04-10T05:48:34.787Z,16.47
2018-04-10T05:51:02.262Z,17.33
2018-04-10T05:53:29.722Z,17.57
2018-04-10T05:55:57.195Z,17.47
2018-04-10T05:58:24.690Z,19.23
2018-04-10T06:00:52.138Z,16.70
2018-04-10T06:03:19.599Z,18.17
2018-04-10T06:05:47.067Z,17.90
2018-04-10T06:08:14.682Z,17.07
2018-04-10T06:10:42.167Z,18.20
2018-04-10T06:13:09.995Z,17.30
2018-04-10T06:15:37.444Z,18.10
2018-04-10T06:18:04.903Z,17.40
2018-04-10T06:20:32.372Z,17.40
2018-04-10T06:22:59.826Z,16.93
2018-04-10T06:25:27.312Z,18.83
2018-04-10T06:27:54.782Z,18.70
2018-04-10T06:30:22.248Z,17.53
2018-04-10T06:32:49.743Z,17.97
2018-04-10T06:35:17.195Z,17.67
2018-04-10T06:37:44.657Z,17.30
2018-04-10T06:40:12.167Z,17.90
2018-04-10T06:42:39.619Z,17.90
2018-04-10T06:45:07.095Z,17.60
2018-04-10T06:47:35.353Z,17.93
2018-04-10T06:50:02.809Z,18.00
2018-04-10T06:52:30.246Z,17.83
2018-04-10T06:54:58.553Z,17.20
2018-04-10T06:57:26.022Z,21.53
2018-04-10T06:59:53.484Z,26.43
2018-04-10T07:02:21.025Z,21.57
2018-04-10T07:04:48.487Z,18.13
2018-04-10T07:07:16.710Z,18.93
2018-04-10T07:09:44.213Z,18.80
2018-04-10T07:12:11.670Z,19.07
2018-04-10T07:14:39.157Z,19.17
2018-04-10T07:17:06.654Z,19.43
2018-04-10T07:19:34.121Z,19.43
2018-04-10T07:22:01.599Z,20.70
2018-04-10T07:24:29.088Z,19.70
2018-04-10T07:26:56.540Z,19.50
2018-04-10T07:29:23.995Z,20.43
2018-04-10T07:31:52.254Z,22.27
2018-04-10T07:34:19.725Z,21.50
2018-04-10T07:36:47.172Z,21.57
2018-04-10T07:39:14.648Z,20.60
2018-04-10T07:41:42.113Z,22.00
2018-04-10T07:44:09.563Z,21.10
2018-04-10T07:46:37.014Z,19.73
2018-04-10T07:49:04.478Z,20.73
2018-04-10T07:51:31.966Z,21.33
2018-04-10T07:53:59.469Z,19.20
2018-04-10T07:56:26.912Z,21.03
2018-04-10T07:58:54.361Z,21.87
2018-04-10T08:01:21.819Z,23.83
2018-04-10T08:03:50.093Z,21.43
2018-04-10T08:06:17.499Z,19.37
2018-04-10T08:08:44.954Z,21.87
2018-04-10T08:11:13.213Z,20.70
2018-04-10T08:13:40.662Z,20.10
2018-04-10T08:16:08.127Z,18.93
2018-04-10T08:18:36.518Z,20.40
2018-04-10T08:21:04.002Z,19.83
2018-04-10T08:23:31.472Z,20.57
2018-04-10T08:25:58.944Z,20.97
2018-04-10T08:28:26.436Z,20.67
2018-04-10T08:30:53.876Z,21.00
2018-04-10T08:33:21.369Z,20.63
2018-04-10T08:35:48.817Z,18.43
2018-04-10T08:38:16.286Z,21.93
2018-04-10T08:40:43.758Z,22.30
2018-04-10T08:43:11.957Z,21.10
2018-04-10T08:45:39.414Z,24.27
2018-04-10T08:48:06.869Z,22.70
2018-04-10T08:50:34.390Z,22.60
2018-04-10T08:53:01.801Z,22.50
2018-04-10T08:55:30.036Z,26.80
2018-04-10T08:57:57.489Z,22.93
2018-04-10T09:00:24.951Z,23.40
2018-04-10T09:02:53.172Z,22.00
2018-04-10T09:05:20.661Z,22.27
2018-04-10T09:07:48.864Z,21.53
2018-04-10T09:10:16.335Z,22.53
2018-04-10T09:12:43.793Z,20.87
2018-04-10T09:15:12.052Z,23.23
2018-04-10T09:17:40.283Z,19.63
2018-04-10T09:20:07.729Z,25.20
2018-04-10T09:22:35.179Z,22.23
2018-04-10T09:25:02.642Z,21.80
2018-04-10T09:27:30.843Z,22.93
2018-04-10T09:29:58.305Z,23.33
2018-04-10T09:32:25.753Z,24.07
2018-04-10T09:34:53.224Z,21.90
2018-04-10T09:37:20.680Z,23.10
2018-04-10T09:39:48.905Z,22.47
2018-04-10T09:42:16.375Z,22.70
2018-04-10T09:44:43.886Z,24.03
2018-04-10T09:47:11.325Z,25.03
2018-04-10T09:49:38.930Z,24.47
2018-04-10T09:52:07.127Z,24.33
2018-04-10T09:54:34.570Z,24.00
2018-04-10T09:57:02.046Z,24.40
2018-04-10T09:59:29.490Z,24.90
2018-04-10T10:01:56.944Z,25.40
2018-04-10T10:04:25.146Z,23.83
2018-04-10T10:06:52.594Z,24.80
2018-04-10T10:09:20.048Z,22.87
2018-04-10T10:11:47.535Z,29.07
2018-04-10T10:14:14.974Z,25.97
2018-04-10T10:16:42.424Z,26.17
2018-04-10T10:19:09.880Z,23.90
2018-04-10T10:21:38.126Z,23.80
2018-04-10T10:24:06.336Z,24.47
2018-04-10T10:26:33.782Z,24.10
2018-04-10T10:29:01.242Z,24.87
2018-04-10T10:31:28.702Z,26.10
2018-04-10T10:33:56.995Z,25.57
2018-04-10T10:36:24.433Z,24.47
2018-04-10T10:38:51.904Z,25.20
2018-04-10T10:41:19.387Z,25.63
2018-04-10T10:43:46.808Z,23.23
2018-04-10T10:46:14.265Z,25.77
2018-04-10T10:48:41.728Z,23.97
2018-04-10T10:51:09.281Z,25.03
2018-04-10T10:53:36.739Z,23.83
2018-04-10T10:56:04.206Z,24.50
2018-04-10T10:58:31.655Z,24.90
2018-04-10T11:00:59.229Z,25.80
2018-04-10T11:03:26.677Z,23.73
2018-04-10T11:05:54.141Z,25.63
2018-04-10T11:08:21.607Z,25.50
2018-04-10T11:10:49.146Z,25.07
2018-04-10T11:13:16.670Z,23.60
2018-04-10T11:15:44.881Z,24.73
2018-04-10T11:18:12.329Z,22.00
2018-04-10T11:20:39.863Z,25.20
2018-04-10T11:23:07.329Z,25.80
2018-04-10T11:25:34.863Z,25.10
2018-04-10T11:28:02.322Z,24.90
2018-04-10T11:30:29.818Z,23.07
2018-04-10T11:32:57.281Z,26.13
2018-04-10T11:35:24.885Z,25.60
2018-04-10T11:37:53.113Z,24.90
2018-04-10T11:40:20.590Z,31.17
2018-04-10T11:42:48.825Z,26.50
2018-04-10T11:45:16.317Z,26.97
2018-04-10T11:47:43.768Z,23.27
2018-04-10T11:50:11.218Z,23.03
2018-04-10T11:52:38.684Z,24.67
2018-04-10T11:55:06.150Z,24.43
2018-04-10T11:57:33.707Z,23.80
2018-04-10T12:00:01.151Z,25.67
2018-04-10T12:02:29.398Z,24.57
2018-04-10T12:04:56.852Z,24.53
2018-04-10T12:07:25.065Z,21.77
2018-04-10T12:09:52.563Z,23.07
2018-04-10T12:12:20.797Z,25.20
2018-04-10T12:14:48.298Z,25.90
2018-04-10T12:17:15.772Z,27.03
2018-04-10T12:19:43.218Z,26.47
2018-04-10T12:22:10.691Z,25.13
2018-04-10T12:24:38.901Z,24.67
2018-04-10T12:27:06.408Z,24.57
2018-04-10T12:29:33.870Z,25.90
2018-04-10T12:32:01.335Z,26.30
2018-04-10T12:34:28.805Z,24.17
2018-04-10T12:36:56.270Z,24.07
2018-04-10T12:39:24.475Z,26.50
2018-04-10T12:41:51.925Z,25.30
2018-04-10T12:44:19.387Z,24.50
2018-04-10T12:46:46.821Z,25.13
2018-04-10T12:49:14.270Z,26.07
2018-04-10T12:51:41.750Z,29.27
2018-04-10T12:54:09.981Z,25.60
2018-04-10T12:56:37.463Z,29.60
2018-04-10T12:59:05.670Z,28.80
2018-04-10T13:01:33.146Z,25.73
2018-04-10T13:04:00.601Z,27.67
2018-04-10T13:06:28.826Z,30.07
2018-04-10T13:08:56.299Z,27.50
2018-04-10T13:11:23.854Z,26.60
2018-04-10T13:13:51.394Z,25.47
2018-04-10T13:16:18.846Z,27.30
2018-04-10T13:18:46.306Z,27.80
2018-04-10T13:21:13.782Z,28.07
2018-04-10T13:23:41.252Z,27.47
2018-04-10T13:26:08.717Z,30.03
2018-04-10T13:28:36.942Z,30.83
2018-04-10T13:31:04.407Z,29.13
2018-04-10T13:33:32.618Z,27.20
2018-04-10T13:36:00.070Z,28.57
2018-04-10T13:38:27.530Z,28.20
2018-04-10T13:40:54.988Z,28.20
2018-04-10T13:43:23.246Z,26.47
2018-04-10T13:45:50.742Z,27.13
2018-04-10T13:48:18.217Z,29.40
2018-04-10T13:50:45.678Z,27.10
2018-04-10T13:53:13.926Z,25.93
2018-04-10T13:55:41.369Z,25.90
2018-04-10T13:58:08.862Z,26.67
2018-04-10T14:00:36.326Z,28.43
2018-04-10T14:03:03.850Z,27.47
2018-04-10T14:05:31.299Z,27.70
2018-04-10T14:07:58.745Z,29.90
2018-04-10T14:10:26.194Z,26.00
2018-04-10T14:12:53.656Z,29.53
2018-04-10T14:15:21.119Z,27.13
2018-04-10T14:17:48.578Z,30.57
2018-04-10T14:20:16.805Z,26.93
2018-04-10T14:22:44.296Z,27.60
2018-04-10T14:25:12.533Z,25.87
2018-04-10T14:27:39.998Z,27.40
2018-04-10T14:30:07.485Z,28.20
2018-04-10T14:32:34.944Z,31.60
2018-04-10T14:35:02.420Z,28.43
2018-04-10T14:37:30.677Z,31.33
2018-04-10T14:39:58.117Z,29.37
2018-04-10T14:42:26.362Z,30.20
2018-04-10T14:44:53.875Z,31.77
2018-04-10T14:47:21.323Z,33.73
2018-04-10T14:49:48.761Z,33.53
2018-04-10T14:52:16.214Z,31.17
2018-04-10T14:54:43.854Z,31.23
2018-04-10T14:57:12.077Z,32.27
2018-04-10T14:59:39.533Z,32.87
2018-04-10T15:02:06.990Z,31.07
2018-04-10T15:04:34.431Z,29.80
2018-04-10T15:07:01.881Z,30.67
2018-04-10T15:09:29.325Z,33.77
2018-04-10T15:11:56.791Z,31.50
2018-04-10T15:14:24.235Z,30.63
2018-04-10T15:16:51.708Z,30.97
2018-04-10T15:19:19.950Z,30.73
2018-04-10T15:21:47.389Z,29.07
2018-04-10T15:24:14.875Z,28.67
2018-04-10T15:26:42.334Z,29.30
2018-04-10T15:29:09.780Z,27.73
2018-04-10T15:31:37.270Z,27.40
2018-04-10T15:34:05.713Z,29.03
2018-04-10T15:36:33.192Z,28.63
2018-04-10T15:39:00.657Z,27.17
2018-04-10T15:41:28.190Z,29.97
2018-04-10T15:43:55.653Z,31.07
2018-04-10T15:46:23.126Z,32.23
2018-04-10T15:48:50.574Z,33.10
2018-04-10T15:51:18.037Z,33.07
2018-04-10T15:53:45.535Z,33.27
2018-04-10T15:56:13.121Z,32.00
2018-04-10T15:58:40.680Z,34.37
2018-04-10T16:01:08.892Z,32.17
2018-04-10T16:03:36.351Z,32.93
2018-04-10T16:06:03.802Z,30.43
2018-04-10T16:08:31.275Z,32.50
2018-04-10T16:10:58.738Z,33.60
2018-04-10T16:13:26.210Z,29.67
2018-04-10T16:15:53.650Z,31.13
2018-04-10T16:18:21.118Z,31.07
2018-04-10T16:20:48.565Z,32.37
2018-04-10T16:23:16.034Z,31.23
2018-04-10T16:25:43.480Z,31.27
2018-04-10T16:28:11.745Z,29.13
2018-04-10T16:30:41.933Z,31.80
2018-04-10T16:33:09.442Z,30.47
2018-04-10T16:35:37.175Z,31.90
2018-04-10T16:38:05.870Z,32.77
2018-04-10T16:40:33.386Z,31.60
2018-04-10T16:43:00.841Z,29.57
2018-04-10T16:45:28.298Z,31.13
2018-04-10T16:47:55.783Z,29.13
2018-04-10T16:50:23.230Z,29.80
2018-04-10T16:52:51.923Z,30.60
2018-04-10T16:55:19.380Z,28.97
2018-04-10T16:57:46.872Z,27.97
2018-04-10T17:00:14.342Z,28.70
2018-04-10T17:02:41.781Z,28.30
2018-04-10T17:05:09.305Z,27.37
2018-04-10T17:07:36.748Z,28.70
2018-04-10T17:10:04.219Z,27.00
2018-04-10T17:12:31.758Z,26.60
2018-04-10T17:14:59.975Z,25.53
2018-04-10T17:17:28.389Z,25.60
2018-04-10T17:19:57.363Z,27.03
2018-04-10T17:22:24.807Z,25.53
2018-04-10T17:24:52.287Z,26.43
2018-04-10T17:27:19.741Z,26.00
2018-04-10T17:29:47.208Z,26.17
2018-04-10T17:32:14.682Z,27.40
2018-04-10T17:34:42.905Z,27.93
2018-04-10T17:37:10.358Z,26.37
2018-04-10T17:39:37.813Z,25.20
2018-04-10T17:42:06.094Z,26.00
2018-04-10T17:44:33.573Z,23.87
2018-04-10T17:47:01.045Z,22.77
2018-04-10T17:49:28.506Z,24.00
2018-04-10T17:51:55.962Z,22.87
2018-04-10T17:54:23.464Z,23.17
2018-04-10T17:56:50.939Z,12.37
2018-04-10T17:59:19.198Z,8.87
2018-04-10T18:01:47.428Z,8.50
2018-04-10T18:04:14.899Z,4.73
2018-04-10T18:06:43.146Z,4.83
2018-04-10T18:09:10.615Z,4.93
2018-04-10T18:11:38.071Z,4.80
2018-04-10T18:14:05.531Z,6.07
2018-04-10T18:16:33.040Z,4.23
2018-04-10T18:19:01.262Z,3.70
2018-04-10T18:21:28.739Z,6.27
2018-04-10T18:23:57.001Z,3.80
2018-04-10T18:26:24.450Z,2.40
2018-04-10T18:28:52.676Z,2.23
2018-04-10T18:31:20.148Z,2.93
2018-04-10T18:33:49.570Z,2.27
2018-04-10T18:36:17.261Z,3.10
2018-04-10T18:38:44.707Z,3.27
2018-04-10T18:41:12.146Z,3.00
2018-04-10T18:43:39.671Z,2.60
2018-04-10T18:46:07.176Z,2.00
2018-04-10T18:48:34.654Z,2.77
2018-04-10T18:51:02.110Z,1.87
2018-04-10T18:53:30.576Z,2.00
2018-04-10T18:55:58.046Z,1.90
2018-04-10T18:58:26.488Z,1.57
2018-04-10T19:00:54.767Z,2.20
2018-04-10T19:03:22.583Z,3.10
2018-04-10T19:05:50.042Z,3.00
2018-04-10T19:08:17.627Z,3.20
2018-04-10T19:10:45.874Z,5.43
2018-04-10T19:13:13.332Z,5.23
2018-04-10T19:15:41.580Z,5.33
2018-04-10T19:18:09.032Z,6.20
2018-04-10T19:20:37.258Z,7.53
2018-04-10T19:23:04.688Z,7.33
2018-04-10T19:25:32.143Z,8.43
2018-04-10T19:27:59.602Z,8.20
2018-04-10T19:30:27.114Z,10.50
2018-04-10T19:32:54.564Z,14.70
2018-04-10T19:35:22.019Z,8.00
2018-04-10T19:37:49.479Z,9.20
2018-04-10T19:40:17.713Z,7.93
2018-04-10T19:42:45.191Z,8.20
2018-04-10T19:45:12.718Z,9.50
2018-04-10T19:47:40.357Z,33.20
2018-04-10T19:50:07.834Z,11.07
2018-04-10T19:52:36.957Z,7.13
2018-04-10T19:55:04.411Z,8.43
2018-04-10T19:57:31.846Z,8.70
2018-04-10T19:59:59.306Z,8.10
2018-04-10T20:02:26.752Z,8.57
2018-04-10T20:04:54.218Z,8.83
2018-04-10T20:07:22.442Z,8.20
2018-04-10T20:09:49.956Z,9.33
2018-04-10T20:12:17.414Z,9.33
2018-04-10T20:14:44.874Z,8.90
2018-04-10T20:17:12.347Z,9.67
2018-04-10T20:19:39.812Z,9.20
2018-04-10T20:22:08.029Z,10.17
2018-04-10T20:24:35.503Z,9.23
2018-04-10T20:27:03.750Z,10.67
2018-04-10T20:29:31.240Z,10.60
2018-04-10T20:31:58.693Z,12.70
2018-04-10T20:34:26.155Z,13.47
2018-04-10T20:36:53.626Z,11.20
2018-04-10T20:39:21.084Z,11.13
2018-04-10T20:41:48.571Z,11.70
2018-04-10T20:44:16.026Z,13.10
2018-04-10T20:46:43.516Z,12.03
2018-04-10T20:49:11.737Z,11.90
2018-04-10T20:51:39.226Z,12.03
2018-04-10T20:54:06.710Z,11.57
2018-04-10T20:56:34.182Z,10.90
2018-04-10T20:59:01.645Z,10.20
2018-04-10T21:01:29.124Z,10.37
2018-04-10T21:03:56.614Z,11.40
2018-04-10T21:06:24.064Z,10.77
2018-04-10T21:08:51.508Z,10.37
2018-04-10T21:11:18.973Z,15.40
2018-04-10T21:13:46.418Z,11.70
2018-04-10T21:16:13.922Z,12.00
2018-04-10T21:18:41.384Z,12.43
2018-04-10T21:21:08.993Z,11.53
2018-04-10T21:23:36.457Z,12.47
2018-04-10T21:26:03.912Z,12.27
2018-04-10T21:28:31.372Z,12.87
2018-04-10T21:30:58.821Z,12.07
2018-04-10T21:33:27.086Z,13.33
2018-04-10T21:38:39.759Z,13.40
2018-04-10T21:41:07.410Z,13.67
2018-04-10T21:43:35.505Z,13.60
2018-04-10T21:46:02.959Z,13.07
2018-04-10T21:48:30.437Z,13.10
2018-04-10T21:50:57.887Z,14.47
2018-04-10T21:53:25.343Z,14.80
2018-04-10T21:55:53.568Z,15.10
2018-04-10T21:58:21.993Z,16.00
2018-04-10T22:00:50.019Z,15.30
2018-04-10T22:03:17.539Z,16.10
2018-04-10T22:05:45.038Z,17.13
2018-04-10T22:08:12.547Z,15.80
2018-04-10T22:10:40.006Z,17.07
2018-04-10T22:13:11.085Z,16.47
2018-04-10T22:15:38.554Z,17.93
2018-04-10T22:18:06.046Z,20.50
2018-04-10T22:20:33.492Z,16.80
2018-04-10T23:44:58.822Z,14.43
2018-04-10T23:47:26.280Z,13.17
2018-04-10T23:49:53.765Z,14.20
2018-04-10T23:52:21.222Z,15.03
2018-04-10T23:54:48.704Z,15.07
2018-04-10T23:57:16.162Z,14.00
2018-04-10T23:59:44.402Z,14.80
